sensor_id;sensor_type;location;lat;lon;timestamp;temperature;humidity
22114;DHT22;11223;49.968;9.062;2023-06-05T00:01:13;13.20;78.20
22114;DHT22;11223;49.968;9.062;2023-06-05T00:03:39;13.20;77.50
22114;DHT22;11223;49.968;9.062;2023-06-05T00:06:05;13.20;77.80
22114;DHT22;11223;49.968;9.062;2023-06-05T00:08:32;13.10;77.20
22114;DHT22;11223;49.968;9.062;2023-06-05T00:10:57;13.10;76.50
22114;DHT22;11223;49.968;9.062;2023-06-05T00:13:23;13.00;76.30
22114;DHT22;11223;49.968;9.062;2023-06-05T00:15:48;13.00;77.10
22114;DHT22;11223;49.968;9.062;2023-06-05T00:18:15;12.90;76.60
22114;DHT22;11223;49.968;9.062;2023-06-05T00:20:41;12.90;76.50
22114;DHT22;11223;49.968;9.062;2023-06-05T00:23:07;12.90;76.50
22114;DHT22;11223;49.968;9.062;2023-06-05T00:25:34;12.80;76.30
22114;DHT22;11223;49.968;9.062;2023-06-05T00:27:59;12.70;76.20
22114;DHT22;11223;49.968;9.062;2023-06-05T00:30:25;12.70;76.50
22114;DHT22;11223;49.968;9.062;2023-06-05T00:32:50;12.60;75.90
22114;DHT22;11223;49.968;9.062;2023-06-05T00:35:16;12.60;76.80
22114;DHT22;11223;49.968;9.062;2023-06-05T00:37:42;12.50;76.50
22114;DHT22;11223;49.968;9.062;2023-06-05T00:40:09;12.50;75.70
22114;DHT22;11223;49.968;9.062;2023-06-05T00:42:35;12.40;75.20
22114;DHT22;11223;49.968;9.062;2023-06-05T00:45:00;12.40;75.20
22114;DHT22;11223;49.968;9.062;2023-06-05T00:47:26;12.40;76.10
22114;DHT22;11223;49.968;9.062;2023-06-05T00:49:52;12.40;76.60
22114;DHT22;11223;49.968;9.062;2023-06-05T00:52:18;12.30;76.70
22114;DHT22;11223;49.968;9.062;2023-06-05T00:54:43;12.30;76.90
22114;DHT22;11223;49.968;9.062;2023-06-05T00:57:09;12.30;77.90
22114;DHT22;11223;49.968;9.062;2023-06-05T00:59:36;12.30;78.40
22114;DHT22;11223;49.968;9.062;2023-06-05T01:02:02;12.30;79.60
22114;DHT22;11223;49.968;9.062;2023-06-05T01:04:31;12.20;78.70
22114;DHT22;11223;49.968;9.062;2023-06-05T01:06:58;12.20;78.80
22114;DHT22;11223;49.968;9.062;2023-06-05T01:09:26;12.20;79.00
22114;DHT22;11223;49.968;9.062;2023-06-05T01:12:01;12.20;78.80
22114;DHT22;11223;49.968;9.062;2023-06-05T01:14:30;12.10;79.20
22114;DHT22;11223;49.968;9.062;2023-06-05T01:16:59;12.10;79.80
22114;DHT22;11223;49.968;9.062;2023-06-05T01:19:26;12.00;79.70
22114;DHT22;11223;49.968;9.062;2023-06-05T01:22:00;12.00;80.70
22114;DHT22;11223;49.968;9.062;2023-06-05T01:24:27;12.00;80.70
22114;DHT22;11223;49.968;9.062;2023-06-05T01:29:38;11.90;80.20
22114;DHT22;11223;49.968;9.062;2023-06-05T01:32:19;11.90;80.40
22114;DHT22;11223;49.968;9.062;2023-06-05T01:34:47;11.90;80.80
22114;DHT22;11223;49.968;9.062;2023-06-05T01:37:14;11.90;80.40
22114;DHT22;11223;49.968;9.062;2023-06-05T01:39:45;11.90;80.00
22114;DHT22;11223;49.968;9.062;2023-06-05T01:42:12;11.90;81.00
22114;DHT22;11223;49.968;9.062;2023-06-05T01:44:39;11.90;81.20
22114;DHT22;11223;49.968;9.062;2023-06-05T01:47:07;11.90;81.50
22114;DHT22;11223;49.968;9.062;2023-06-05T01:49:33;11.80;81.40
22114;DHT22;11223;49.968;9.062;2023-06-05T01:51:59;11.80;82.00
22114;DHT22;11223;49.968;9.062;2023-06-05T01:54:24;11.80;82.00
22114;DHT22;11223;49.968;9.062;2023-06-05T01:56:52;11.80;82.50
22114;DHT22;11223;49.968;9.062;2023-06-05T01:59:19;11.80;82.70
22114;DHT22;11223;49.968;9.062;2023-06-05T02:01:44;11.80;83.20
22114;DHT22;11223;49.968;9.062;2023-06-05T02:04:10;11.80;83.00
22114;DHT22;11223;49.968;9.062;2023-06-05T02:06:36;11.80;83.00
22114;DHT22;11223;49.968;9.062;2023-06-05T02:09:07;11.80;83.20
22114;DHT22;11223;49.968;9.062;2023-06-05T02:11:35;11.70;83.60
22114;DHT22;11223;49.968;9.062;2023-06-05T02:14:03;11.70;84.00
22114;DHT22;11223;49.968;9.062;2023-06-05T02:16:31;11.70;84.60
22114;DHT22;11223;49.968;9.062;2023-06-05T02:18:56;11.70;84.90
22114;DHT22;11223;49.968;9.062;2023-06-05T02:21:29;11.60;85.40
22114;DHT22;11223;49.968;9.062;2023-06-05T02:24:00;11.60;85.10
22114;DHT22;11223;49.968;9.062;2023-06-05T02:26:27;11.60;85.80
22114;DHT22;11223;49.968;9.062;2023-06-05T02:28:53;11.50;86.30
22114;DHT22;11223;49.968;9.062;2023-06-05T02:31:21;11.50;86.50
22114;DHT22;11223;49.968;9.062;2023-06-05T02:33:51;11.50;87.50
22114;DHT22;11223;49.968;9.062;2023-06-05T02:36:17;11.40;87.50
22114;DHT22;11223;49.968;9.062;2023-06-05T02:38:43;11.40;87.80
22114;DHT22;11223;49.968;9.062;2023-06-05T02:41:08;11.40;88.00
22114;DHT22;11223;49.968;9.062;2023-06-05T02:43:34;11.40;88.20
22114;DHT22;11223;49.968;9.062;2023-06-05T02:46:00;11.30;88.50
22114;DHT22;11223;49.968;9.062;2023-06-05T02:48:25;11.30;88.40
22114;DHT22;11223;49.968;9.062;2023-06-05T02:50:51;11.30;88.40
22114;DHT22;11223;49.968;9.062;2023-06-05T02:53:17;11.20;88.60
22114;DHT22;11223;49.968;9.062;2023-06-05T02:55:42;11.20;88.70
22114;DHT22;11223;49.968;9.062;2023-06-05T02:58:08;11.20;89.30
22114;DHT22;11223;49.968;9.062;2023-06-05T03:00:34;11.20;89.90
22114;DHT22;11223;49.968;9.062;2023-06-05T03:02:59;11.10;90.00
22114;DHT22;11223;49.968;9.062;2023-06-05T03:05:26;11.10;89.70
22114;DHT22;11223;49.968;9.062;2023-06-05T03:07:52;11.00;89.60
22114;DHT22;11223;49.968;9.062;2023-06-05T03:10:21;11.00;90.00
22114;DHT22;11223;49.968;9.062;2023-06-05T03:12:47;11.00;90.20
22114;DHT22;11223;49.968;9.062;2023-06-05T03:15:13;11.00;90.60
22114;DHT22;11223;49.968;9.062;2023-06-05T03:17:42;11.00;90.60
22114;DHT22;11223;49.968;9.062;2023-06-05T03:20:07;11.00;90.50
22114;DHT22;11223;49.968;9.062;2023-06-05T03:22:35;10.90;90.40
22114;DHT22;11223;49.968;9.062;2023-06-05T03:25:00;10.90;90.60
22114;DHT22;11223;49.968;9.062;2023-06-05T03:27:26;10.90;91.30
22114;DHT22;11223;49.968;9.062;2023-06-05T03:29:52;10.90;91.50
22114;DHT22;11223;49.968;9.062;2023-06-05T03:32:17;10.90;91.80
22114;DHT22;11223;49.968;9.062;2023-06-05T03:34:43;10.80;92.20
22114;DHT22;11223;49.968;9.062;2023-06-05T03:37:08;10.80;92.50
22114;DHT22;11223;49.968;9.062;2023-06-05T03:39:34;10.80;92.70
22114;DHT22;11223;49.968;9.062;2023-06-05T03:41:59;10.80;93.40
22114;DHT22;11223;49.968;9.062;2023-06-05T03:44:26;10.70;93.20
22114;DHT22;11223;49.968;9.062;2023-06-05T03:46:51;10.70;93.80
22114;DHT22;11223;49.968;9.062;2023-06-05T03:49:17;10.70;93.60
22114;DHT22;11223;49.968;9.062;2023-06-05T03:51:43;10.70;93.70
22114;DHT22;11223;49.968;9.062;2023-06-05T03:54:10;10.70;93.70
22114;DHT22;11223;49.968;9.062;2023-06-05T03:56:38;10.70;93.80
22114;DHT22;11223;49.968;9.062;2023-06-05T03:59:08;10.70;93.70
22114;DHT22;11223;49.968;9.062;2023-06-05T04:01:44;10.70;94.00
22114;DHT22;11223;49.968;9.062;2023-06-05T04:04:10;10.80;94.30
22114;DHT22;11223;49.968;9.062;2023-06-05T04:06:36;10.80;94.50
22114;DHT22;11223;49.968;9.062;2023-06-05T04:09:02;10.80;94.70
22114;DHT22;11223;49.968;9.062;2023-06-05T04:11:34;10.90;95.10
22114;DHT22;11223;49.968;9.062;2023-06-05T04:14:00;10.90;95.30
22114;DHT22;11223;49.968;9.062;2023-06-05T04:16:25;10.90;95.50
22114;DHT22;11223;49.968;9.062;2023-06-05T04:18:51;11.00;95.60
22114;DHT22;11223;49.968;9.062;2023-06-05T04:21:16;11.00;95.70
22114;DHT22;11223;49.968;9.062;2023-06-05T04:23:42;11.00;95.90
22114;DHT22;11223;49.968;9.062;2023-06-05T04:26:07;11.00;96.00
22114;DHT22;11223;49.968;9.062;2023-06-05T04:28:33;11.10;96.40
22114;DHT22;11223;49.968;9.062;2023-06-05T04:31:00;11.10;96.60
22114;DHT22;11223;49.968;9.062;2023-06-05T04:33:27;11.10;96.70
22114;DHT22;11223;49.968;9.062;2023-06-05T04:35:52;11.20;96.90
22114;DHT22;11223;49.968;9.062;2023-06-05T04:38:18;11.20;97.00
22114;DHT22;11223;49.968;9.062;2023-06-05T04:40:47;11.20;97.00
22114;DHT22;11223;49.968;9.062;2023-06-05T04:43:14;11.20;97.00
22114;DHT22;11223;49.968;9.062;2023-06-05T04:45:39;11.20;97.10
22114;DHT22;11223;49.968;9.062;2023-06-05T04:48:05;11.20;97.30
22114;DHT22;11223;49.968;9.062;2023-06-05T04:50:31;11.30;97.50
22114;DHT22;11223;49.968;9.062;2023-06-05T04:52:59;11.30;97.80
22114;DHT22;11223;49.968;9.062;2023-06-05T04:55:24;11.40;98.00
22114;DHT22;11223;49.968;9.062;2023-06-05T04:57:50;11.40;98.10
22114;DHT22;11223;49.968;9.062;2023-06-05T05:00:17;11.50;98.30
22114;DHT22;11223;49.968;9.062;2023-06-05T05:02:42;11.50;98.50
22114;DHT22;11223;49.968;9.062;2023-06-05T05:05:08;11.60;98.50
22114;DHT22;11223;49.968;9.062;2023-06-05T05:07:34;11.60;98.70
22114;DHT22;11223;49.968;9.062;2023-06-05T05:10:00;11.70;99.00
22114;DHT22;11223;49.968;9.062;2023-06-05T05:12:26;11.80;99.20
22114;DHT22;11223;49.968;9.062;2023-06-05T05:14:52;11.90;99.40
22114;DHT22;11223;49.968;9.062;2023-06-05T05:17:17;12.00;99.60
22114;DHT22;11223;49.968;9.062;2023-06-05T05:19:45;12.00;99.80
22114;DHT22;11223;49.968;9.062;2023-06-05T05:22:10;12.10;99.80
22114;DHT22;11223;49.968;9.062;2023-06-05T05:24:36;12.20;99.80
22114;DHT22;11223;49.968;9.062;2023-06-05T05:27:02;12.30;99.90
22114;DHT22;11223;49.968;9.062;2023-06-05T05:29:28;12.40;99.90
22114;DHT22;11223;49.968;9.062;2023-06-05T05:31:54;12.40;99.90
22114;DHT22;11223;49.968;9.062;2023-06-05T05:34:21;12.50;99.90
22114;DHT22;11223;49.968;9.062;2023-06-05T05:36:46;12.60;99.90
22114;DHT22;11223;49.968;9.062;2023-06-05T05:39:12;12.70;99.90
22114;DHT22;11223;49.968;9.062;2023-06-05T05:41:37;12.80;99.90
22114;DHT22;11223;49.968;9.062;2023-06-05T05:44:03;12.90;99.90
22114;DHT22;11223;49.968;9.062;2023-06-05T05:46:28;13.00;99.90
22114;DHT22;11223;49.968;9.062;2023-06-05T05:48:54;13.10;99.90
22114;DHT22;11223;49.968;9.062;2023-06-05T05:51:20;13.20;99.90
22114;DHT22;11223;49.968;9.062;2023-06-05T05:53:46;13.30;99.90
22114;DHT22;11223;49.968;9.062;2023-06-05T05:56:12;13.50;99.90
22114;DHT22;11223;49.968;9.062;2023-06-05T05:58:37;13.60;99.60
22114;DHT22;11223;49.968;9.062;2023-06-05T06:01:03;13.70;98.90
22114;DHT22;11223;49.968;9.062;2023-06-05T06:03:29;13.80;98.40
22114;DHT22;11223;49.968;9.062;2023-06-05T06:05:55;13.90;97.70
22114;DHT22;11223;49.968;9.062;2023-06-05T06:08:22;14.00;97.60
22114;DHT22;11223;49.968;9.062;2023-06-05T06:10:47;14.20;97.70
22114;DHT22;11223;49.968;9.062;2023-06-05T06:13:13;14.30;97.50
22114;DHT22;11223;49.968;9.062;2023-06-05T06:15:39;14.50;97.40
22114;DHT22;11223;49.968;9.062;2023-06-05T06:18:05;14.60;97.10
22114;DHT22;11223;49.968;9.062;2023-06-05T06:20:31;14.70;96.20
22114;DHT22;11223;49.968;9.062;2023-06-05T06:22:59;14.90;95.50
22114;DHT22;11223;49.968;9.062;2023-06-05T06:25:24;15.00;94.00
22114;DHT22;11223;49.968;9.062;2023-06-05T06:27:55;15.20;93.60
22114;DHT22;11223;49.968;9.062;2023-06-05T06:30:20;15.30;92.70
22114;DHT22;11223;49.968;9.062;2023-06-05T06:32:47;15.50;92.90
22114;DHT22;11223;49.968;9.062;2023-06-05T06:35:13;15.60;92.50
22114;DHT22;11223;49.968;9.062;2023-06-05T06:37:39;15.70;92.40
22114;DHT22;11223;49.968;9.062;2023-06-05T06:40:06;15.90;92.40
22114;DHT22;11223;49.968;9.062;2023-06-05T06:42:35;16.00;92.10
22114;DHT22;11223;49.968;9.062;2023-06-05T06:45:01;16.20;91.10
22114;DHT22;11223;49.968;9.062;2023-06-05T06:47:27;16.30;91.00
22114;DHT22;11223;49.968;9.062;2023-06-05T06:49:53;16.50;90.70
22114;DHT22;11223;49.968;9.062;2023-06-05T06:52:20;16.60;90.00
22114;DHT22;11223;49.968;9.062;2023-06-05T06:54:46;16.80;87.90
22114;DHT22;11223;49.968;9.062;2023-06-05T06:57:12;17.00;85.80
22114;DHT22;11223;49.968;9.062;2023-06-05T06:59:38;17.10;85.40
22114;DHT22;11223;49.968;9.062;2023-06-05T07:02:16;17.20;84.60
22114;DHT22;11223;49.968;9.062;2023-06-05T07:04:43;17.40;84.70
22114;DHT22;11223;49.968;9.062;2023-06-05T07:07:10;17.50;83.50
22114;DHT22;11223;49.968;9.062;2023-06-05T07:09:36;17.60;84.30
22114;DHT22;11223;49.968;9.062;2023-06-05T07:12:03;17.70;84.70
22114;DHT22;11223;49.968;9.062;2023-06-05T07:14:34;17.90;84.70
22114;DHT22;11223;49.968;9.062;2023-06-05T07:17:00;18.10;91.40
22114;DHT22;11223;49.968;9.062;2023-06-05T07:19:30;18.10;90.50
22114;DHT22;11223;49.968;9.062;2023-06-05T07:22:00;18.30;89.00
22114;DHT22;11223;49.968;9.062;2023-06-05T07:24:28;18.50;82.90
22114;DHT22;11223;49.968;9.062;2023-06-05T07:26:55;18.70;78.30
22114;DHT22;11223;49.968;9.062;2023-06-05T07:29:22;18.90;78.50
22114;DHT22;11223;49.968;9.062;2023-06-05T07:31:52;19.10;85.60
22114;DHT22;11223;49.968;9.062;2023-06-05T07:34:19;19.30;80.20
22114;DHT22;11223;49.968;9.062;2023-06-05T07:36:46;19.50;78.20
22114;DHT22;11223;49.968;9.062;2023-06-05T07:39:12;19.60;78.00
22114;DHT22;11223;49.968;9.062;2023-06-05T07:41:38;19.70;77.80
22114;DHT22;11223;49.968;9.062;2023-06-05T07:44:07;19.80;78.30
22114;DHT22;11223;49.968;9.062;2023-06-05T07:46:33;20.00;77.80
22114;DHT22;11223;49.968;9.062;2023-06-05T07:48:58;20.00;78.80
22114;DHT22;11223;49.968;9.062;2023-06-05T07:51:24;20.10;78.30
22114;DHT22;11223;49.968;9.062;2023-06-05T07:53:50;20.20;77.10
22114;DHT22;11223;49.968;9.062;2023-06-05T07:56:16;20.20;78.40
22114;DHT22;11223;49.968;9.062;2023-06-05T07:58:42;20.40;77.60
22114;DHT22;11223;49.968;9.062;2023-06-05T08:01:08;20.50;76.90
22114;DHT22;11223;49.968;9.062;2023-06-05T08:03:34;20.50;75.50
22114;DHT22;11223;49.968;9.062;2023-06-05T08:05:59;20.70;75.60
22114;DHT22;11223;49.968;9.062;2023-06-05T08:08:26;20.80;75.80
22114;DHT22;11223;49.968;9.062;2023-06-05T08:10:51;20.90;74.20
22114;DHT22;11223;49.968;9.062;2023-06-05T08:13:17;21.00;72.60
22114;DHT22;11223;49.968;9.062;2023-06-05T08:15:42;21.10;70.80
22114;DHT22;11223;49.968;9.062;2023-06-05T08:18:08;21.20;70.00
22114;DHT22;11223;49.968;9.062;2023-06-05T08:20:34;21.40;70.00
22114;DHT22;11223;49.968;9.062;2023-06-05T08:23:00;21.60;70.50
22114;DHT22;11223;49.968;9.062;2023-06-05T08:25:26;21.80;70.00
22114;DHT22;11223;49.968;9.062;2023-06-05T08:27:52;22.10;66.80
22114;DHT22;11223;49.968;9.062;2023-06-05T08:30:18;22.30;67.30
22114;DHT22;11223;49.968;9.062;2023-06-05T08:32:44;22.40;67.90
22114;DHT22;11223;49.968;9.062;2023-06-05T08:35:10;22.50;66.20
22114;DHT22;11223;49.968;9.062;2023-06-05T08:37:37;22.70;65.50
22114;DHT22;11223;49.968;9.062;2023-06-05T08:40:04;22.90;65.20
22114;DHT22;11223;49.968;9.062;2023-06-05T08:42:36;23.10;63.80
22114;DHT22;11223;49.968;9.062;2023-06-05T08:45:07;23.20;59.60
22114;DHT22;11223;49.968;9.062;2023-06-05T08:47:36;23.40;59.60
22114;DHT22;11223;49.968;9.062;2023-06-05T08:50:06;23.40;59.90
22114;DHT22;11223;49.968;9.062;2023-06-05T08:52:33;23.60;60.90
22114;DHT22;11223;49.968;9.062;2023-06-05T08:55:05;23.70;60.20
22114;DHT22;11223;49.968;9.062;2023-06-05T08:57:34;23.90;58.40
22114;DHT22;11223;49.968;9.062;2023-06-05T09:00:04;24.00;57.60
22114;DHT22;11223;49.968;9.062;2023-06-05T09:02:41;24.10;58.80
22114;DHT22;11223;49.968;9.062;2023-06-05T09:05:09;24.10;58.60
22114;DHT22;11223;49.968;9.062;2023-06-05T09:07:35;24.20;58.00
22114;DHT22;11223;49.968;9.062;2023-06-05T09:10:03;24.30;57.70
22114;DHT22;11223;49.968;9.062;2023-06-05T09:12:29;24.50;57.20
22114;DHT22;11223;49.968;9.062;2023-06-05T09:14:55;24.60;56.70
22114;DHT22;11223;49.968;9.062;2023-06-05T09:17:21;24.80;55.10
22114;DHT22;11223;49.968;9.062;2023-06-05T09:19:47;24.80;54.90
22114;DHT22;11223;49.968;9.062;2023-06-05T09:22:13;24.90;70.80
22114;DHT22;11223;49.968;9.062;2023-06-05T09:24:40;24.80;66.50
22114;DHT22;11223;49.968;9.062;2023-06-05T09:27:09;24.80;56.30
22114;DHT22;11223;49.968;9.062;2023-06-05T09:29:40;24.80;55.00
22114;DHT22;11223;49.968;9.062;2023-06-05T09:32:08;25.00;54.20
22114;DHT22;11223;49.968;9.062;2023-06-05T09:34:39;25.10;52.80
22114;DHT22;11223;49.968;9.062;2023-06-05T09:37:12;25.20;50.90
22114;DHT22;11223;49.968;9.062;2023-06-05T09:39:42;25.30;51.80
22114;DHT22;11223;49.968;9.062;2023-06-05T09:42:11;25.30;52.10
22114;DHT22;11223;49.968;9.062;2023-06-05T09:44:37;25.40;50.30
22114;DHT22;11223;49.968;9.062;2023-06-05T09:47:05;25.50;51.20
22114;DHT22;11223;49.968;9.062;2023-06-05T09:52:08;25.70;50.40
22114;DHT22;11223;49.968;9.062;2023-06-05T09:54:38;25.90;50.20
22114;DHT22;11223;49.968;9.062;2023-06-05T09:57:05;26.10;50.80
22114;DHT22;11223;49.968;9.062;2023-06-05T09:59:32;26.10;50.80
22114;DHT22;11223;49.968;9.062;2023-06-05T10:02:05;26.30;50.60
22114;DHT22;11223;49.968;9.062;2023-06-05T10:04:54;26.40;49.60
22114;DHT22;11223;49.968;9.062;2023-06-05T10:07:22;26.40;49.30
22114;DHT22;11223;49.968;9.062;2023-06-05T10:09:49;26.50;47.00
22114;DHT22;11223;49.968;9.062;2023-06-05T10:12:15;26.60;46.50
22114;DHT22;11223;49.968;9.062;2023-06-05T10:14:42;26.70;45.40
22114;DHT22;11223;49.968;9.062;2023-06-05T10:17:12;26.70;50.10
22114;DHT22;11223;49.968;9.062;2023-06-05T10:19:41;26.80;46.60
22114;DHT22;11223;49.968;9.062;2023-06-05T10:22:07;26.90;46.00
22114;DHT22;11223;49.968;9.062;2023-06-05T10:24:35;26.90;47.10
22114;DHT22;11223;49.968;9.062;2023-06-05T10:27:20;26.90;46.80
22114;DHT22;11223;49.968;9.062;2023-06-05T10:33:56;27.00;49.40
22114;DHT22;11223;49.968;9.062;2023-06-05T10:36:10;27.00;47.10
22114;DHT22;11223;49.968;9.062;2023-06-05T10:38:41;27.10;45.60
22114;DHT22;11223;49.968;9.062;2023-06-05T10:41:07;27.20;44.30
22114;DHT22;11223;49.968;9.062;2023-06-05T10:43:46;27.30;43.70
22114;DHT22;11223;49.968;9.062;2023-06-05T10:46:41;27.20;44.90
22114;DHT22;11223;49.968;9.062;2023-06-05T10:49:11;27.30;45.30
22114;DHT22;11223;49.968;9.062;2023-06-05T10:51:45;27.50;44.40
22114;DHT22;11223;49.968;9.062;2023-06-05T10:54:58;27.50;44.70
22114;DHT22;11223;49.968;9.062;2023-06-05T10:57:01;27.50;44.10
22114;DHT22;11223;49.968;9.062;2023-06-05T10:59:30;27.60;45.70
22114;DHT22;11223;49.968;9.062;2023-06-05T11:07:30;27.90;43.50
22114;DHT22;11223;49.968;9.062;2023-06-05T11:15:15;27.70;45.50
22114;DHT22;11223;49.968;9.062;2023-06-05T11:17:45;27.80;45.70
22114;DHT22;11223;49.968;9.062;2023-06-05T11:30:22;28.30;45.50
22114;DHT22;11223;49.968;9.062;2023-06-05T11:32:48;28.40;44.90
22114;DHT22;11223;49.968;9.062;2023-06-05T11:35:20;28.40;44.50
22114;DHT22;11223;49.968;9.062;2023-06-05T11:37:46;28.50;45.60
22114;DHT22;11223;49.968;9.062;2023-06-05T11:40:24;28.60;42.50
22114;DHT22;11223;49.968;9.062;2023-06-05T11:42:49;28.50;42.70
22114;DHT22;11223;49.968;9.062;2023-06-05T11:45:15;28.40;44.80
22114;DHT22;11223;49.968;9.062;2023-06-05T11:47:41;28.40;44.10
22114;DHT22;11223;49.968;9.062;2023-06-05T11:50:12;28.50;46.70
22114;DHT22;11223;49.968;9.062;2023-06-05T11:52:38;28.60;44.60
22114;DHT22;11223;49.968;9.062;2023-06-05T11:55:17;28.70;42.30
22114;DHT22;11223;49.968;9.062;2023-06-05T11:57:54;28.70;42.30
22114;DHT22;11223;49.968;9.062;2023-06-05T12:00:25;28.80;41.90
22114;DHT22;11223;49.968;9.062;2023-06-05T12:02:51;28.90;42.30
22114;DHT22;11223;49.968;9.062;2023-06-05T12:05:17;28.90;42.50
22114;DHT22;11223;49.968;9.062;2023-06-05T12:07:42;28.90;41.50
22114;DHT22;11223;49.968;9.062;2023-06-05T12:10:09;28.90;42.40
22114;DHT22;11223;49.968;9.062;2023-06-05T12:12:51;29.00;41.70
22114;DHT22;11223;49.968;9.062;2023-06-05T12:15:18;28.90;42.30
22114;DHT22;11223;49.968;9.062;2023-06-05T12:17:51;28.60;41.60
22114;DHT22;11223;49.968;9.062;2023-06-05T12:20:17;28.70;42.80
22114;DHT22;11223;49.968;9.062;2023-06-05T12:22:44;28.80;45.00
22114;DHT22;11223;49.968;9.062;2023-06-05T12:25:20;29.00;44.90
22114;DHT22;11223;49.968;9.062;2023-06-05T12:27:46;29.20;43.30
22114;DHT22;11223;49.968;9.062;2023-06-05T12:30:15;29.30;43.30
22114;DHT22;11223;49.968;9.062;2023-06-05T12:32:42;29.30;46.30
22114;DHT22;11223;49.968;9.062;2023-06-05T12:35:20;29.00;45.10
22114;DHT22;11223;49.968;9.062;2023-06-05T12:37:47;28.70;43.50
22114;DHT22;11223;49.968;9.062;2023-06-05T12:40:13;28.70;45.00
22114;DHT22;11223;49.968;9.062;2023-06-05T12:42:40;28.60;45.60
22114;DHT22;11223;49.968;9.062;2023-06-05T12:45:09;28.40;44.80
22114;DHT22;11223;49.968;9.062;2023-06-05T12:47:36;28.40;43.30
22114;DHT22;11223;49.968;9.062;2023-06-05T12:50:02;28.60;44.50
22114;DHT22;11223;49.968;9.062;2023-06-05T12:52:29;28.70;42.10
22114;DHT22;11223;49.968;9.062;2023-06-05T12:54:55;28.90;43.40
22114;DHT22;11223;49.968;9.062;2023-06-05T12:57:25;29.20;42.10
22114;DHT22;11223;49.968;9.062;2023-06-05T12:59:53;29.20;42.10
22114;DHT22;11223;49.968;9.062;2023-06-05T13:02:19;29.20;41.30
22114;DHT22;11223;49.968;9.062;2023-06-05T13:04:45;29.10;41.60
22114;DHT22;11223;49.968;9.062;2023-06-05T13:07:11;28.90;42.10
22114;DHT22;11223;49.968;9.062;2023-06-05T13:09:37;29.00;44.60
22114;DHT22;11223;49.968;9.062;2023-06-05T13:12:03;29.00;42.70
22114;DHT22;11223;49.968;9.062;2023-06-05T13:14:30;29.30;43.40
22114;DHT22;11223;49.968;9.062;2023-06-05T13:16:59;29.60;42.70
22114;DHT22;11223;49.968;9.062;2023-06-05T13:19:25;29.80;43.40
22114;DHT22;11223;49.968;9.062;2023-06-05T13:21:51;30.00;41.00
22114;DHT22;11223;49.968;9.062;2023-06-05T13:24:17;30.10;44.00
22114;DHT22;11223;49.968;9.062;2023-06-05T13:26:43;30.10;39.40
22114;DHT22;11223;49.968;9.062;2023-06-05T13:29:10;30.00;40.00
22114;DHT22;11223;49.968;9.062;2023-06-05T13:31:35;30.20;41.60
22114;DHT22;11223;49.968;9.062;2023-06-05T13:34:01;30.40;42.50
22114;DHT22;11223;49.968;9.062;2023-06-05T13:36:27;30.60;45.00
22114;DHT22;11223;49.968;9.062;2023-06-05T13:38:53;30.80;42.80
22114;DHT22;11223;49.968;9.062;2023-06-05T13:41:19;31.00;45.20
22114;DHT22;11223;49.968;9.062;2023-06-05T13:43:44;31.30;42.10
22114;DHT22;11223;49.968;9.062;2023-06-05T13:46:10;31.70;39.80
22114;DHT22;11223;49.968;9.062;2023-06-05T13:48:36;31.60;39.40
22114;DHT22;11223;49.968;9.062;2023-06-05T13:51:03;31.10;39.50
22114;DHT22;11223;49.968;9.062;2023-06-05T13:53:29;30.30;40.90
22114;DHT22;11223;49.968;9.062;2023-06-05T13:56:05;29.60;41.00
22114;DHT22;11223;49.968;9.062;2023-06-05T13:58:31;29.30;46.00
22114;DHT22;11223;49.968;9.062;2023-06-05T14:01:01;29.50;41.70
22114;DHT22;11223;49.968;9.062;2023-06-05T14:03:27;29.80;41.90
22114;DHT22;11223;49.968;9.062;2023-06-05T14:05:52;30.10;42.20
22114;DHT22;11223;49.968;9.062;2023-06-05T14:08:18;30.40;41.30
22114;DHT22;11223;49.968;9.062;2023-06-05T14:10:44;30.50;45.70
22114;DHT22;11223;49.968;9.062;2023-06-05T14:13:10;30.60;42.90
22114;DHT22;11223;49.968;9.062;2023-06-05T14:15:36;30.70;45.20
22114;DHT22;11223;49.968;9.062;2023-06-05T14:18:03;30.80;43.70
22114;DHT22;11223;49.968;9.062;2023-06-05T14:20:30;30.90;44.70
22114;DHT22;11223;49.968;9.062;2023-06-05T14:22:59;31.20;44.60
22114;DHT22;11223;49.968;9.062;2023-06-05T14:25:25;31.40;43.10
22114;DHT22;11223;49.968;9.062;2023-06-05T14:27:54;31.60;43.60
22114;DHT22;11223;49.968;9.062;2023-06-05T14:30:20;31.60;42.60
22114;DHT22;11223;49.968;9.062;2023-06-05T14:32:46;31.80;43.10
22114;DHT22;11223;49.968;9.062;2023-06-05T14:35:12;31.90;40.50
22114;DHT22;11223;49.968;9.062;2023-06-05T14:37:37;31.50;41.60
22114;DHT22;11223;49.968;9.062;2023-06-05T14:40:03;30.90;41.00
22114;DHT22;11223;49.968;9.062;2023-06-05T14:42:30;30.20;42.70
22114;DHT22;11223;49.968;9.062;2023-06-05T14:44:55;29.50;42.80
22114;DHT22;11223;49.968;9.062;2023-06-05T14:47:21;28.90;44.80
22114;DHT22;11223;49.968;9.062;2023-06-05T14:49:47;28.50;46.70
22114;DHT22;11223;49.968;9.062;2023-06-05T14:52:13;28.50;47.40
22114;DHT22;11223;49.968;9.062;2023-06-05T14:54:39;28.80;45.70
22114;DHT22;11223;49.968;9.062;2023-06-05T14:57:05;29.60;46.30
22114;DHT22;11223;49.968;9.062;2023-06-05T14:59:31;30.40;44.20
22114;DHT22;11223;49.968;9.062;2023-06-05T15:01:56;31.20;43.50
22114;DHT22;11223;49.968;9.062;2023-06-05T15:04:22;31.40;46.00
22114;DHT22;11223;49.968;9.062;2023-06-05T15:06:48;31.60;46.30
22114;DHT22;11223;49.968;9.062;2023-06-05T15:09:16;32.10;41.60
22114;DHT22;11223;49.968;9.062;2023-06-05T15:11:42;32.40;41.90
22114;DHT22;11223;49.968;9.062;2023-06-05T15:14:07;32.60;40.90
22114;DHT22;11223;49.968;9.062;2023-06-05T15:16:33;32.50;40.60
22114;DHT22;11223;49.968;9.062;2023-06-05T15:18:58;31.60;41.30
22114;DHT22;11223;49.968;9.062;2023-06-05T15:21:24;30.70;45.80
22114;DHT22;11223;49.968;9.062;2023-06-05T15:23:50;30.30;44.50
22114;DHT22;11223;49.968;9.062;2023-06-05T15:26:15;30.20;43.50
22114;DHT22;11223;49.968;9.062;2023-06-05T15:28:41;30.30;43.80
22114;DHT22;11223;49.968;9.062;2023-06-05T15:31:07;30.30;44.00
22114;DHT22;11223;49.968;9.062;2023-06-05T15:33:32;30.40;43.40
22114;DHT22;11223;49.968;9.062;2023-06-05T15:35:58;30.50;40.90
22114;DHT22;11223;49.968;9.062;2023-06-05T15:38:24;30.30;41.90
22114;DHT22;11223;49.968;9.062;2023-06-05T15:40:50;30.40;41.70
22114;DHT22;11223;49.968;9.062;2023-06-05T15:43:15;30.50;43.80
22114;DHT22;11223;49.968;9.062;2023-06-05T15:45:42;30.60;44.80
22114;DHT22;11223;49.968;9.062;2023-06-05T15:48:08;30.60;44.70
22114;DHT22;11223;49.968;9.062;2023-06-05T15:50:34;30.50;42.40
22114;DHT22;11223;49.968;9.062;2023-06-05T15:53:00;30.60;41.10
22114;DHT22;11223;49.968;9.062;2023-06-05T15:55:26;30.40;41.50
22114;DHT22;11223;49.968;9.062;2023-06-05T15:57:52;30.40;43.20
22114;DHT22;11223;49.968;9.062;2023-06-05T16:00:19;30.30;43.50